createdAt,value
2023-03-14T00:02:26.231Z,3.90
2023-03-14T00:06:28.426Z,6.93
2023-03-14T00:10:30.230Z,7.53
2023-03-14T00:14:33.927Z,4.23
2023-03-14T00:18:35.647Z,8.17
2023-03-14T00:22:38.375Z,5.63
2023-03-14T00:26:40.084Z,3.23
2023-03-14T00:30:44.001Z,6.23
2023-03-14T00:34:45.468Z,4.53
2023-03-14T00:38:49.487Z,7.90
2023-03-14T00:42:51.275Z,7.27
2023-03-14T00:46:54.408Z,4.87
2023-03-14T00:50:55.924Z,5.03
2023-03-14T00:54:57.527Z,4.67
2023-03-14T00:58:58.954Z,3.63
2023-03-14T01:03:17.079Z,7.00
2023-03-14T01:07:18.752Z,7.93
2023-03-14T01:11:22.317Z,7.60
2023-03-14T01:15:23.841Z,7.40
2023-03-14T01:19:27.002Z,5.27
2023-03-14T01:23:28.450Z,6.83
2023-03-14T01:27:29.901Z,6.60
2023-03-14T01:31:31.994Z,7.83
2023-03-14T01:35:35.646Z,5.50
2023-03-14T01:39:37.196Z,5.93
2023-03-14T01:43:38.967Z,6.47
2023-03-14T01:47:40.700Z,3.63
2023-03-14T01:51:50.302Z,3.00
2023-03-14T01:55:54.127Z,3.53
2023-03-14T01:59:59.276Z,4.13
2023-03-14T02:04:03.994Z,1.83
2023-03-14T02:08:10.779Z,2.90
2023-03-14T02:12:14.892Z,5.30
2023-03-14T02:16:16.608Z,3.57
2023-03-14T02:20:29.210Z,1.63
2023-03-14T02:24:39.964Z,3.33
2023-03-14T02:28:42.970Z,2.60
2023-03-14T02:32:48.401Z,2.47
2023-03-14T02:36:50.486Z,3.80
2023-03-14T02:40:52.572Z,4.50
2023-03-14T02:45:02.097Z,4.23
2023-03-14T02:49:07.068Z,4.60
2023-03-14T02:53:09.095Z,2.73
2023-03-14T02:57:10.805Z,3.27
2023-03-14T03:01:13.980Z,4.03
2023-03-14T03:05:15.704Z,3.23
2023-03-14T03:09:17.132Z,4.53
2023-03-14T03:13:18.686Z,3.33
2023-03-14T03:17:21.556Z,3.10
2023-03-14T03:21:23.054Z,5.17
2023-03-14T03:25:24.508Z,5.40
2023-03-14T03:29:26.135Z,5.33
2023-03-14T03:33:29.143Z,7.97
2023-03-14T03:37:31.343Z,6.23
2023-03-14T03:41:33.230Z,7.57
2023-03-14T03:45:35.194Z,7.23
2023-03-14T03:49:38.006Z,5.70
2023-03-14T03:53:39.728Z,6.83
2023-03-14T03:57:41.386Z,4.60
2023-03-14T04:01:43.291Z,4.93
2023-03-14T04:05:47.600Z,3.83
2023-03-14T04:09:49.291Z,8.73
2023-03-14T04:13:51.246Z,2.80
2023-03-14T04:17:56.812Z,6.40
2023-03-14T04:21:59.896Z,5.87
2023-03-14T04:26:02.589Z,2.60
2023-03-14T04:30:04.884Z,5.73
2023-03-14T04:34:06.632Z,3.40
2023-03-14T04:38:09.620Z,3.23
2023-03-14T04:42:11.311Z,2.53
2023-03-14T04:46:12.789Z,2.30
2023-03-14T04:50:14.514Z,1.70
2023-03-14T04:54:17.493Z,1.53
2023-03-14T04:58:19.501Z,3.13
2023-03-14T05:02:20.958Z,1.67
2023-03-14T05:06:25.584Z,4.40
2023-03-14T05:10:28.554Z,2.17
2023-03-14T05:14:30.137Z,0.97
2023-03-14T05:18:31.867Z,0.97
2023-03-14T05:22:33.256Z,0.57
2023-03-14T05:26:36.151Z,1.07
2023-03-14T05:30:37.789Z,1.63
2023-03-14T05:34:39.485Z,2.80
2023-03-14T05:38:41.944Z,0.33
2023-03-14T05:42:46.310Z,0.40
2023-03-14T05:46:48.202Z,2.17
2023-03-14T05:50:55.052Z,0.37
2023-03-14T05:54:56.612Z,0.60
2023-03-14T05:58:59.808Z,0.77
2023-03-14T06:03:01.743Z,0.40
2023-03-14T06:07:03.424Z,0.33
2023-03-14T06:11:05.916Z,0.87
2023-03-14T06:15:10.280Z,0.20
2023-03-14T06:19:11.718Z,0.30
2023-03-14T06:23:13.100Z,1.10
2023-03-14T06:27:14.834Z,0.47
2023-03-14T06:31:17.963Z,1.53
2023-03-14T06:35:19.681Z,0.30
2023-03-14T06:39:21.459Z,1.53
2023-03-14T06:43:22.969Z,0.20
2023-03-14T06:47:28.473Z,0.20
2023-03-14T06:51:30.128Z,0.20
2023-03-14T06:55:31.742Z,0.30
2023-03-14T06:59:33.176Z,0.83
2023-03-14T07:03:36.352Z,0.23
2023-03-14T07:07:38.046Z,0.50
2023-03-14T07:11:39.703Z,0.20
2023-03-14T07:15:41.176Z,0.60
2023-03-14T07:19:44.658Z,2.13
2023-03-14T07:23:47.094Z,0.37
2023-03-14T07:27:48.685Z,0.10
2023-03-14T07:31:50.158Z,0.10
2023-03-14T07:35:53.214Z,0.73
2023-03-14T07:39:54.876Z,0.40
2023-03-14T07:43:56.373Z,0.20
2023-03-14T07:47:57.806Z,0.23
2023-03-14T07:52:00.593Z,0.30
2023-03-14T07:56:02.069Z,0.20
2023-03-14T08:00:04.208Z,0.27
2023-03-14T08:04:05.941Z,0.40
2023-03-14T08:08:09.198Z,0.30
2023-03-14T08:12:10.965Z,0.30
2023-03-14T08:16:12.410Z,2.00
2023-03-14T08:20:13.886Z,0.30
2023-03-14T08:24:16.805Z,1.60
2023-03-14T08:28:18.883Z,1.20
2023-03-14T08:32:21.257Z,0.47
2023-03-14T08:36:26.434Z,0.87
2023-03-14T08:40:29.367Z,0.60
2023-03-14T08:44:30.912Z,0.33
2023-03-14T08:48:32.667Z,0.67
2023-03-14T08:52:34.220Z,0.90
2023-03-14T08:56:38.200Z,2.13
2023-03-14T09:00:39.953Z,1.33
2023-03-14T09:04:41.434Z,3.80
2023-03-14T09:08:42.888Z,1.07
2023-03-14T09:12:45.598Z,1.97
2023-03-14T09:16:47.113Z,1.77
2023-03-14T09:20:48.774Z,1.57
2023-03-14T09:24:50.542Z,3.50
2023-03-14T09:28:53.644Z,4.03
2023-03-14T09:32:55.361Z,2.20
2023-03-14T09:36:56.876Z,0.80
2023-03-14T09:41:00.882Z,0.80
2023-03-14T09:45:06.223Z,2.70
2023-03-14T09:49:12.801Z,0.70
2023-03-14T09:53:18.565Z,3.57
2023-03-14T09:57:24.522Z,2.40
2023-03-14T10:01:32.388Z,1.50
2023-03-14T10:05:34.226Z,1.53
2023-03-14T10:09:35.856Z,1.20
2023-03-14T10:13:48.921Z,0.90
2023-03-14T10:17:52.181Z,1.10
2023-03-14T10:21:54.919Z,1.50
2023-03-14T10:26:06.880Z,1.57
2023-03-14T10:30:30.231Z,1.00
2023-03-14T10:34:35.497Z,2.47
2023-03-14T10:38:38.175Z,2.73
2023-03-14T10:42:43.266Z,1.50
2023-03-14T10:46:45.102Z,2.97
2023-03-14T10:50:56.769Z,2.43
2023-03-14T10:54:59.546Z,2.87
2023-03-14T10:59:01.165Z,2.20
2023-03-14T11:03:11.005Z,1.87
2023-03-14T11:07:21.441Z,2.93
2023-03-14T11:11:26.029Z,1.63
2023-03-14T11:15:34.634Z,2.83
2023-03-14T11:20:03.323Z,1.87
2023-03-14T11:24:20.445Z,1.20
2023-03-14T11:28:27.331Z,1.93
2023-03-14T11:32:42.329Z,1.93
2023-03-14T11:36:52.742Z,3.63
2023-03-14T11:40:58.735Z,2.57
2023-03-14T11:45:02.748Z,2.37
2023-03-14T11:49:12.862Z,0.87
2023-03-14T11:53:20.151Z,3.33
2023-03-14T11:57:23.771Z,1.17
2023-03-14T12:01:34.631Z,0.60
2023-03-14T12:05:47.683Z,0.70
2023-03-14T12:09:50.368Z,1.40
2023-03-14T12:13:54.822Z,3.83
2023-03-14T12:17:56.579Z,7.73
2023-03-14T12:22:02.480Z,2.93
2023-03-14T12:26:13.673Z,4.87
2023-03-14T12:30:27.834Z,2.53
2023-03-14T12:34:31.286Z,3.63
2023-03-14T12:38:58.010Z,3.07
2023-03-14T12:43:01.634Z,3.13
2023-03-14T12:47:50.912Z,1.97
2023-03-14T12:52:00.174Z,2.17
2023-03-14T12:56:10.739Z,3.10
2023-03-14T13:00:21.101Z,2.60
2023-03-14T13:04:38.804Z,2.13
2023-03-14T13:08:43.535Z,1.47
2023-03-14T13:12:50.377Z,2.80
2023-03-14T13:16:52.530Z,2.27
2023-03-14T13:20:59.932Z,3.37
2023-03-14T13:25:02.694Z,3.87
2023-03-14T13:29:10.493Z,3.17
2023-03-14T13:33:15.067Z,6.70
2023-03-14T13:37:22.483Z,7.20
2023-03-14T13:41:25.127Z,7.00
2023-03-14T13:45:26.702Z,11.43
2023-03-14T13:49:32.350Z,11.63
2023-03-14T13:53:44.482Z,13.57
2023-03-14T13:57:49.649Z,9.53
2023-03-14T14:01:52.369Z,9.37
2023-03-14T14:05:56.810Z,9.20
2023-03-14T14:10:00.685Z,9.27
2023-03-14T14:14:03.154Z,12.97
2023-03-14T14:18:07.436Z,8.67
2023-03-14T14:22:10.065Z,13.10
2023-03-14T14:26:18.872Z,9.23
2023-03-14T14:30:29.344Z,12.93
2023-03-14T14:34:39.665Z,8.50
2023-03-14T14:38:43.448Z,9.00
2023-03-14T14:42:47.651Z,9.47
2023-03-14T14:46:50.824Z,11.07
2023-03-14T14:50:59.887Z,11.17
2023-03-14T14:55:03.015Z,15.37
2023-03-14T14:59:07.816Z,13.23
2023-03-14T15:03:15.915Z,17.20
2023-03-14T15:07:17.528Z,14.07
2023-03-14T15:11:20.879Z,12.87
2023-03-14T15:15:27.206Z,12.50
2023-03-14T15:19:28.835Z,13.30
2023-03-14T15:23:33.927Z,15.10
2023-03-14T15:27:35.643Z,15.20
2023-03-14T15:31:38.806Z,14.97
2023-03-14T15:35:40.596Z,14.07
2023-03-14T15:39:42.219Z,12.40
2023-03-14T15:43:44.256Z,14.23
2023-03-14T15:47:47.387Z,11.63
2023-03-14T15:51:48.842Z,12.43
2023-03-14T15:55:50.305Z,14.87
2023-03-14T15:59:51.942Z,13.37
2023-03-14T16:03:56.244Z,12.00
2023-03-14T16:07:57.885Z,11.17
2023-03-14T16:11:59.308Z,16.77
2023-03-14T16:16:03.217Z,11.60
2023-03-14T16:20:08.169Z,7.83
2023-03-14T16:24:09.848Z,16.27
2023-03-14T16:28:11.740Z,13.43
2023-03-14T16:32:13.360Z,17.93
2023-03-14T16:36:18.531Z,15.57
2023-03-14T16:40:55.203Z,17.30
2023-03-14T16:44:56.645Z,15.47
2023-03-14T16:48:58.088Z,15.23
2023-03-14T16:53:00.980Z,12.13
2023-03-14T16:57:02.433Z,13.53
2023-03-14T17:01:05.400Z,5.73
2023-03-14T17:05:07.722Z,6.80
2023-03-14T17:09:11.157Z,6.50
2023-03-14T17:13:12.630Z,7.73
2023-03-14T17:17:14.855Z,7.20
2023-03-14T17:21:16.803Z,8.10
2023-03-14T17:25:19.918Z,4.70
2023-03-14T17:29:21.584Z,9.97
2023-03-14T17:33:23.315Z,3.50
2023-03-14T17:37:24.861Z,5.33
2023-03-14T17:41:28.844Z,5.23
2023-03-14T17:45:30.533Z,8.10
2023-03-14T17:49:32.098Z,10.43
2023-03-14T17:53:33.640Z,9.83
2023-03-14T17:57:37.567Z,9.57
2023-03-14T18:01:39.367Z,7.40
2023-03-14T18:05:41.529Z,9.67
2023-03-14T18:09:43.308Z,8.33
2023-03-14T18:13:46.304Z,5.43
2023-03-14T18:17:47.854Z,6.87
2023-03-14T18:21:49.676Z,9.47
2023-03-14T18:25:51.916Z,9.60
2023-03-14T18:29:55.776Z,9.60
2023-03-14T18:33:57.447Z,7.30
2023-03-14T18:37:59.372Z,10.73
2023-03-14T18:42:01.100Z,8.30
2023-03-14T18:46:04.437Z,9.80
2023-03-14T18:50:07.993Z,6.57
2023-03-14T18:54:10.998Z,7.40
2023-03-14T18:58:12.571Z,5.50
2023-03-14T19:02:16.784Z,9.93
2023-03-14T19:06:18.597Z,9.30
2023-03-14T19:10:20.553Z,8.53
2023-03-14T19:14:21.972Z,8.23
2023-03-14T19:18:25.113Z,7.47
2023-03-14T19:22:26.986Z,8.33
2023-03-14T19:26:28.876Z,10.07
2023-03-14T19:30:30.277Z,13.97
2023-03-14T19:34:35.931Z,12.53
2023-03-14T19:38:37.352Z,9.13
2023-03-14T19:42:38.776Z,17.20
2023-03-14T19:46:40.248Z,9.87
2023-03-14T19:50:45.695Z,6.50
2023-03-14T19:54:47.737Z,5.53
2023-03-14T19:58:49.187Z,8.07
2023-03-14T20:02:53.859Z,7.90
2023-03-14T20:06:56.695Z,11.50
2023-03-14T20:10:58.693Z,8.57
2023-03-14T20:15:00.180Z,8.23
2023-03-14T20:19:04.679Z,13.53
2023-03-14T20:23:07.509Z,11.97
2023-03-14T20:27:08.982Z,8.87
2023-03-14T20:31:10.662Z,9.00
2023-03-14T20:35:13.141Z,6.03
2023-03-14T20:39:15.925Z,9.03
2023-03-14T20:43:17.370Z,6.53
2023-03-14T20:47:19.682Z,9.43
2023-03-14T20:51:21.185Z,10.03
2023-03-14T20:55:24.793Z,10.00
2023-03-14T20:59:26.692Z,6.17
2023-03-14T21:03:36.253Z,16.07
2023-03-14T21:07:38.043Z,9.60
2023-03-14T21:11:41.015Z,9.83
2023-03-14T21:15:43.140Z,10.40
2023-03-14T21:19:44.658Z,8.93
2023-03-14T21:23:46.113Z,4.63
2023-03-14T21:27:49.075Z,7.97
2023-03-14T21:31:50.815Z,10.50
2023-03-14T21:35:52.722Z,8.27
2023-03-14T21:39:55.822Z,6.80
2023-03-14T21:43:58.571Z,5.67
2023-03-14T21:48:00.265Z,9.07
2023-03-14T21:52:01.667Z,8.93
2023-03-14T21:56:05.546Z,14.07
2023-03-14T22:00:10.314Z,8.17
2023-03-14T22:04:11.749Z,7.20
2023-03-14T22:08:15.373Z,9.33
2023-03-14T22:12:17.003Z,5.67
2023-03-14T22:16:20.954Z,8.73
2023-03-14T22:20:22.644Z,7.10
2023-03-14T22:24:24.504Z,6.50
2023-03-14T22:28:26.092Z,8.07
2023-03-14T22:32:29.772Z,6.67
2023-03-14T22:36:31.371Z,8.97
2023-03-14T22:40:32.854Z,4.70
2023-03-14T22:44:36.796Z,8.13
2023-03-14T22:48:40.605Z,7.70
2023-03-14T22:52:42.015Z,9.67
2023-03-14T22:56:43.428Z,11.67
2023-03-14T23:00:47.396Z,8.80
2023-03-14T23:04:50.436Z,10.10
2023-03-14T23:08:52.837Z,8.20
2023-03-14T23:12:54.243Z,10.63
2023-03-14T23:16:55.894Z,10.13
2023-03-14T23:21:10.641Z,7.63
2023-03-14T23:25:12.360Z,11.67
2023-03-14T23:29:15.076Z,10.17
2023-03-14T23:33:16.741Z,10.83
2023-03-14T23:37:21.694Z,6.63
2023-03-14T23:41:23.094Z,9.37
2023-03-14T23:45:24.916Z,4.93
2023-03-14T23:49:26.353Z,5.57
2023-03-14T23:53:30.083Z,10.03
2023-03-14T23:57:31.539Z,9.40
